createdAt,value
2017-06-16T00:01:01.874Z,6.40
2017-06-16T00:03:29.353Z,5.83
2017-06-16T00:05:56.889Z,8.00
2017-06-16T00:08:25.158Z,4.40
2017-06-16T00:10:52.627Z,5.63
2017-06-16T00:13:20.864Z,4.43
2017-06-16T00:15:48.350Z,5.13
2017-06-16T00:18:15.823Z,9.73
2017-06-16T00:20:44.075Z,5.27
2017-06-16T00:23:11.539Z,8.10
2017-06-16T00:25:39.807Z,5.60
2017-06-16T00:28:11.076Z,7.50
2017-06-16T00:30:38.618Z,5.80
2017-06-16T00:33:06.852Z,4.57
2017-06-16T00:35:34.322Z,5.83
2017-06-16T00:38:01.806Z,7.60
2017-06-16T00:40:30.042Z,5.93
2017-06-16T00:42:57.506Z,6.00
2017-06-16T00:45:25.095Z,4.40
2017-06-16T00:47:52.663Z,5.37
2017-06-16T00:50:20.975Z,9.70
2017-06-16T00:52:48.483Z,4.40
2017-06-16T00:55:15.951Z,4.93
2017-06-16T00:57:44.191Z,4.90
2017-06-16T01:00:11.659Z,8.47
2017-06-16T01:02:39.127Z,8.23
2017-06-16T01:05:06.687Z,6.73
2017-06-16T01:07:34.251Z,6.60
2017-06-16T01:10:02.312Z,6.00
2017-06-16T01:12:29.777Z,6.60
2017-06-16T01:14:58.050Z,7.83
2017-06-16T01:17:25.510Z,6.60
2017-06-16T01:19:53.769Z,5.07
2017-06-16T01:22:21.241Z,4.87
2017-06-16T01:24:49.562Z,5.30
2017-06-16T01:27:17.051Z,5.73
2017-06-16T01:29:44.501Z,5.67
2017-06-16T01:32:11.977Z,4.83
2017-06-16T01:34:39.442Z,5.80
2017-06-16T01:37:07.232Z,7.10
2017-06-16T01:39:35.450Z,5.13
2017-06-16T01:42:02.939Z,6.57
2017-06-16T01:44:31.233Z,4.73
2017-06-16T01:46:58.693Z,6.03
2017-06-16T01:49:26.243Z,5.97
2017-06-16T01:51:54.598Z,8.57
2017-06-16T01:54:22.158Z,6.40
2017-06-16T01:56:49.620Z,7.70
2017-06-16T01:59:17.091Z,11.23
2017-06-16T02:01:45.400Z,11.77
2017-06-16T02:04:13.005Z,10.00
2017-06-16T02:06:40.565Z,9.03
2017-06-16T02:09:08.038Z,11.43
2017-06-16T02:11:36.301Z,6.87
2017-06-16T02:14:03.854Z,9.37
2017-06-16T02:16:31.435Z,10.27
2017-06-16T02:18:59.701Z,13.93
2017-06-16T02:21:27.342Z,13.03
2017-06-16T02:23:54.822Z,20.83
2017-06-16T02:26:23.089Z,17.77
2017-06-16T02:28:50.636Z,18.90
2017-06-16T02:31:18.207Z,19.90
2017-06-16T02:33:45.678Z,26.17
2017-06-16T02:36:13.973Z,23.03
2017-06-16T02:38:41.446Z,20.33
2017-06-16T02:41:08.949Z,21.10
2017-06-16T02:43:36.513Z,19.50
2017-06-16T02:46:03.974Z,24.80
2017-06-16T02:48:32.244Z,17.47
2017-06-16T02:50:59.736Z,23.87
2017-06-16T02:53:27.259Z,24.10
2017-06-16T02:55:54.722Z,21.27
2017-06-16T02:58:22.270Z,23.37
2017-06-16T03:00:49.746Z,23.20
2017-06-16T03:03:17.982Z,26.27
2017-06-16T03:05:45.465Z,19.73
2017-06-16T03:08:13.746Z,25.00
2017-06-16T03:10:42.007Z,26.27
2017-06-16T03:13:09.487Z,30.87
2017-06-16T03:15:37.726Z,27.50
2017-06-16T03:18:05.203Z,23.87
2017-06-16T03:20:33.437Z,25.80
2017-06-16T03:23:02.666Z,30.33
2017-06-16T03:25:30.142Z,24.63
2017-06-16T03:27:58.501Z,25.03
2017-06-16T03:30:26.066Z,23.40
2017-06-16T03:32:53.622Z,29.23
2017-06-16T03:35:21.098Z,23.93
2017-06-16T03:37:49.330Z,28.23
2017-06-16T03:40:16.806Z,25.53
2017-06-16T03:42:44.366Z,24.73
2017-06-16T03:45:11.834Z,18.53
2017-06-16T03:47:40.098Z,21.50
2017-06-16T03:50:07.607Z,25.50
2017-06-16T03:52:35.061Z,31.93
2017-06-16T03:55:02.571Z,21.43
2017-06-16T03:57:30.125Z,21.90
2017-06-16T03:59:57.770Z,22.67
2017-06-16T04:02:25.250Z,24.33
2017-06-16T04:04:52.805Z,23.10
2017-06-16T04:07:20.285Z,21.70
2017-06-16T04:09:48.590Z,23.77
2017-06-16T04:12:16.090Z,26.30
2017-06-16T04:14:43.554Z,23.20
2017-06-16T04:17:11.114Z,25.97
2017-06-16T04:19:38.665Z,21.57
2017-06-16T04:22:06.141Z,23.40
2017-06-16T04:24:34.403Z,24.33
2017-06-16T04:27:01.953Z,22.50
2017-06-16T04:29:29.467Z,23.30
2017-06-16T04:31:56.973Z,19.90
2017-06-16T04:34:24.442Z,25.00
2017-06-16T04:36:52.701Z,19.63
2017-06-16T04:39:20.169Z,33.37
2017-06-16T04:41:47.642Z,26.50
2017-06-16T04:44:15.869Z,20.00
2017-06-16T04:46:43.458Z,26.73
2017-06-16T04:49:10.921Z,24.90
2017-06-16T04:51:39.192Z,23.10
2017-06-16T04:54:07.457Z,21.37
2017-06-16T04:56:34.932Z,20.53
2017-06-16T04:59:03.169Z,23.27
2017-06-16T05:01:30.636Z,18.83
2017-06-16T05:03:58.203Z,20.10
2017-06-16T05:06:25.762Z,22.27
2017-06-16T05:08:53.321Z,24.10
2017-06-16T05:11:20.790Z,21.63
2017-06-16T05:13:49.060Z,19.70
2017-06-16T05:16:16.527Z,20.93
2017-06-16T05:18:44.785Z,24.97
2017-06-16T05:21:12.256Z,22.07
2017-06-16T05:23:40.494Z,19.90
2017-06-16T05:26:07.978Z,19.30
2017-06-16T05:28:35.453Z,22.07
2017-06-16T05:31:03.703Z,17.27
2017-06-16T05:33:31.281Z,24.10
2017-06-16T05:35:59.545Z,17.17
2017-06-16T05:38:27.109Z,21.17
2017-06-16T05:40:55.377Z,19.83
2017-06-16T05:43:22.845Z,16.93
2017-06-16T05:45:51.105Z,19.97
2017-06-16T05:48:18.619Z,21.87
2017-06-16T05:50:46.095Z,17.33
2017-06-16T05:53:13.565Z,17.83
2017-06-16T05:55:41.053Z,14.33
2017-06-16T05:58:09.315Z,12.10
2017-06-16T06:00:36.883Z,15.33
2017-06-16T06:03:05.159Z,24.63
2017-06-16T06:05:33.405Z,14.40
2017-06-16T06:08:00.973Z,19.27
2017-06-16T06:10:28.437Z,16.80
2017-06-16T06:12:55.909Z,10.93
2017-06-16T06:15:24.266Z,15.50
2017-06-16T06:17:51.742Z,12.90
2017-06-16T06:20:19.974Z,12.30
2017-06-16T06:22:48.172Z,12.30
2017-06-16T06:25:15.640Z,12.63
2017-06-16T06:27:43.195Z,11.83
2017-06-16T06:30:10.658Z,11.23
2017-06-16T06:32:38.151Z,13.30
2017-06-16T06:35:05.666Z,11.97
2017-06-16T06:37:33.214Z,16.23
2017-06-16T06:40:00.780Z,15.10
2017-06-16T06:42:28.245Z,18.73
2017-06-16T06:44:56.485Z,15.70
2017-06-16T06:47:23.973Z,14.67
2017-06-16T06:49:51.431Z,15.77
2017-06-16T06:52:19.701Z,10.47
2017-06-16T06:54:47.959Z,10.00
2017-06-16T06:57:15.525Z,9.70
2017-06-16T06:59:43.016Z,11.20
2017-06-16T07:02:10.477Z,8.67
2017-06-16T07:04:37.998Z,10.20
2017-06-16T07:07:05.555Z,9.13
2017-06-16T07:09:33.088Z,7.67
2017-06-16T07:12:00.550Z,10.40
2017-06-16T07:14:28.022Z,10.90
2017-06-16T07:16:55.498Z,11.30
2017-06-16T07:19:23.817Z,11.40
2017-06-16T07:21:51.318Z,6.13
2017-06-16T07:24:18.877Z,8.93
2017-06-16T07:26:46.346Z,10.20
2017-06-16T07:29:14.613Z,8.20
2017-06-16T07:31:42.085Z,5.43
2017-06-16T07:34:10.442Z,14.53
2017-06-16T07:36:37.917Z,17.73
2017-06-16T07:39:06.146Z,8.17
2017-06-16T07:41:33.642Z,8.13
2017-06-16T07:44:01.905Z,15.70
2017-06-16T07:46:29.402Z,14.63
2017-06-16T07:48:56.921Z,9.83
2017-06-16T07:51:24.412Z,16.70
2017-06-16T07:53:51.873Z,11.53
2017-06-16T07:56:19.394Z,7.27
2017-06-16T07:58:47.011Z,7.93
2017-06-16T08:01:14.478Z,8.63
2017-06-16T08:03:41.970Z,9.40
2017-06-16T08:06:09.433Z,8.40
2017-06-16T08:08:37.702Z,9.53
2017-06-16T08:11:05.168Z,10.77
2017-06-16T08:13:33.426Z,8.67
2017-06-16T08:16:00.998Z,8.90
2017-06-16T08:18:28.497Z,7.77
2017-06-16T08:21:01.701Z,9.67
2017-06-16T08:23:29.197Z,14.43
2017-06-16T08:25:56.665Z,11.30
2017-06-16T08:28:24.897Z,7.53
2017-06-16T08:30:52.391Z,6.90
2017-06-16T08:35:53.538Z,8.90
2017-06-16T08:38:21.017Z,11.17
2017-06-16T08:40:49.330Z,10.47
2017-06-16T08:43:16.794Z,11.40
2017-06-16T08:45:44.319Z,8.60
2017-06-16T08:48:12.666Z,8.90
2017-06-16T08:50:40.144Z,6.70
2017-06-16T08:53:08.410Z,8.70
2017-06-16T08:55:35.962Z,14.03
2017-06-16T08:58:03.521Z,7.13
2017-06-16T09:00:30.994Z,10.43
2017-06-16T09:02:59.217Z,9.50
2017-06-16T09:05:26.690Z,15.40
2017-06-16T09:07:54.203Z,10.73
2017-06-16T09:10:21.664Z,8.07
2017-06-16T09:12:49.173Z,6.03
2017-06-16T09:15:16.666Z,12.53
2017-06-16T09:17:44.193Z,10.03
2017-06-16T09:20:11.695Z,10.33
2017-06-16T09:22:39.204Z,6.87
2017-06-16T09:25:06.761Z,5.77
2017-06-16T09:27:34.326Z,8.43
2017-06-16T09:30:01.882Z,13.43
2017-06-16T09:32:29.437Z,6.33
2017-06-16T09:34:57.016Z,5.70
2017-06-16T09:37:25.273Z,5.23
2017-06-16T09:39:52.888Z,10.50
2017-06-16T09:42:20.358Z,6.47
2017-06-16T09:44:47.860Z,11.77
2017-06-16T09:47:15.322Z,6.70
2017-06-16T09:49:43.558Z,4.60
2017-06-16T09:52:14.746Z,6.30
2017-06-16T09:54:42.989Z,7.40
2017-06-16T09:57:10.554Z,7.70
2017-06-16T09:59:38.013Z,6.73
2017-06-16T10:02:05.483Z,11.60
2017-06-16T10:04:33.750Z,10.93
2017-06-16T10:07:01.313Z,8.33
2017-06-16T10:09:28.876Z,6.57
2017-06-16T10:11:57.097Z,4.07
2017-06-16T10:14:24.597Z,16.87
2017-06-16T10:16:52.062Z,9.47
2017-06-16T10:19:19.529Z,7.83
2017-06-16T10:21:47.836Z,4.10
2017-06-16T10:24:15.303Z,9.63
2017-06-16T10:26:42.798Z,8.10
2017-06-16T10:29:10.350Z,10.13
2017-06-16T10:31:37.815Z,9.30
2017-06-16T10:34:05.373Z,7.40
2017-06-16T10:36:32.926Z,6.07
2017-06-16T10:39:00.485Z,7.03
2017-06-16T10:41:28.046Z,10.00
2017-06-16T10:43:55.502Z,4.33
2017-06-16T10:46:22.976Z,8.40
2017-06-16T10:48:51.205Z,7.37
2017-06-16T10:51:18.674Z,5.03
2017-06-16T10:53:46.137Z,7.73
2017-06-16T10:56:13.705Z,5.50
2017-06-16T10:58:41.166Z,4.00
2017-06-16T11:01:08.635Z,5.70
2017-06-16T11:03:36.951Z,5.80
2017-06-16T11:06:04.421Z,6.63
2017-06-16T11:08:31.885Z,4.30
2017-06-16T11:10:59.365Z,2.00
2017-06-16T11:13:26.921Z,6.90
2017-06-16T11:15:54.482Z,3.70
2017-06-16T11:18:21.958Z,3.07
2017-06-16T11:20:50.198Z,4.23
2017-06-16T11:23:17.773Z,9.10
2017-06-16T11:25:45.385Z,6.00
2017-06-16T11:28:12.854Z,8.80
2017-06-16T11:30:40.345Z,5.43
2017-06-16T11:33:07.809Z,2.40
2017-06-16T11:35:35.271Z,4.40
2017-06-16T11:38:03.501Z,3.07
2017-06-16T11:40:30.999Z,5.07
2017-06-16T11:42:58.549Z,3.37
2017-06-16T11:45:26.009Z,3.30
2017-06-16T11:47:53.520Z,6.90
2017-06-16T11:50:20.991Z,4.40
2017-06-16T11:52:48.459Z,6.43
2017-06-16T11:55:15.920Z,3.50
2017-06-16T11:57:43.386Z,6.20
2017-06-16T12:00:10.946Z,5.00
2017-06-16T12:02:38.515Z,5.80
2017-06-16T12:05:05.986Z,2.23
2017-06-16T12:07:34.217Z,3.67
2017-06-16T12:10:01.694Z,3.70
2017-06-16T12:12:29.310Z,2.10
2017-06-16T12:14:56.790Z,4.20
2017-06-16T12:17:24.266Z,7.43
2017-06-16T12:19:51.739Z,9.30
2017-06-16T12:22:19.968Z,4.37
2017-06-16T12:24:47.460Z,7.37
2017-06-16T12:27:14.925Z,3.30
2017-06-16T12:29:43.164Z,2.33
2017-06-16T12:32:10.641Z,3.43
2017-06-16T12:34:38.097Z,3.27
2017-06-16T12:37:05.559Z,2.83
2017-06-16T12:39:33.109Z,2.37
2017-06-16T12:42:00.581Z,3.30
2017-06-16T12:44:28.952Z,2.97
2017-06-16T12:46:57.251Z,2.10
2017-06-16T12:49:25.501Z,1.60
2017-06-16T12:51:52.982Z,1.97
2017-06-16T12:54:20.457Z,3.77
2017-06-16T12:56:47.978Z,1.17
2017-06-16T12:59:15.437Z,1.20
2017-06-16T13:01:42.902Z,1.37
2017-06-16T13:04:11.143Z,3.77
2017-06-16T13:06:38.609Z,1.73
2017-06-16T13:09:06.179Z,1.63
2017-06-16T13:11:33.738Z,7.03
2017-06-16T13:14:01.293Z,1.30
2017-06-16T13:16:28.768Z,5.87
2017-06-16T13:18:57.031Z,3.10
2017-06-16T13:21:24.494Z,2.70
2017-06-16T13:23:52.811Z,1.27
2017-06-16T13:26:20.262Z,1.77
2017-06-16T13:28:47.779Z,1.80
2017-06-16T13:31:15.338Z,1.50
2017-06-16T13:33:42.886Z,2.17
2017-06-16T13:36:10.350Z,1.30
2017-06-16T13:38:37.906Z,3.87
2017-06-16T13:41:05.462Z,1.80
2017-06-16T13:43:32.925Z,2.20
2017-06-16T13:46:00.429Z,5.70
2017-06-16T13:48:27.955Z,2.83
2017-06-16T13:50:56.217Z,1.37
2017-06-16T13:53:23.673Z,1.50
2017-06-16T13:55:51.147Z,2.03
2017-06-16T13:58:19.401Z,1.10
2017-06-16T14:00:46.959Z,5.33
2017-06-16T14:03:14.413Z,1.27
2017-06-16T14:05:41.884Z,2.20
2017-06-16T14:08:10.160Z,2.50
2017-06-16T14:10:38.414Z,3.70
2017-06-16T14:13:05.876Z,1.67
2017-06-16T14:15:33.442Z,4.27
2017-06-16T14:18:01.704Z,3.37
2017-06-16T14:20:29.270Z,2.30
2017-06-16T14:22:56.846Z,1.23
2017-06-16T14:25:25.097Z,1.33
2017-06-16T14:27:52.661Z,4.33
2017-06-16T14:30:20.238Z,4.83
2017-06-16T14:32:48.469Z,2.23
2017-06-16T14:35:15.940Z,2.10
2017-06-16T14:37:43.414Z,3.67
2017-06-16T14:40:10.968Z,3.20
2017-06-16T14:42:38.529Z,2.87
2017-06-16T14:45:05.989Z,1.37
2017-06-16T14:47:33.539Z,2.13
2017-06-16T14:50:01.093Z,3.00
2017-06-16T14:52:28.658Z,10.17
2017-06-16T14:54:56.167Z,4.80
2017-06-16T14:57:23.633Z,2.73
2017-06-16T14:59:51.336Z,4.70
2017-06-16T15:02:19.573Z,5.90
2017-06-16T15:04:47.094Z,3.00
2017-06-16T15:07:14.641Z,2.70
2017-06-16T15:09:42.881Z,2.40
2017-06-16T15:12:10.361Z,3.77
2017-06-16T15:14:37.829Z,7.13
2017-06-16T15:17:06.130Z,5.67
2017-06-16T15:19:33.649Z,4.17
2017-06-16T15:22:01.105Z,4.20
2017-06-16T15:24:28.587Z,6.53
2017-06-16T15:26:56.107Z,4.63
2017-06-16T15:29:23.573Z,6.50
2017-06-16T15:31:51.138Z,5.03
2017-06-16T15:34:18.593Z,2.83
2017-06-16T15:36:46.153Z,5.17
2017-06-16T15:39:13.620Z,4.20
2017-06-16T15:41:41.853Z,3.90
2017-06-16T15:44:09.442Z,7.37
2017-06-16T15:46:36.996Z,4.40
2017-06-16T15:49:04.461Z,3.03
2017-06-16T15:51:32.729Z,2.13
2017-06-16T15:54:00.365Z,6.70
2017-06-16T15:56:27.825Z,4.93
2017-06-16T15:58:55.297Z,2.20
2017-06-16T16:01:22.768Z,2.27
2017-06-16T16:03:51.087Z,2.67
2017-06-16T16:06:18.597Z,2.60
2017-06-16T16:08:46.153Z,2.80
2017-06-16T16:11:13.722Z,2.73
2017-06-16T16:13:41.188Z,7.77
2017-06-16T16:16:09.412Z,3.93
2017-06-16T16:18:36.882Z,7.93
2017-06-16T16:21:04.487Z,3.43
2017-06-16T16:23:31.957Z,5.90
2017-06-16T16:25:59.459Z,1.70
2017-06-16T16:28:26.981Z,4.00
2017-06-16T16:30:54.504Z,3.13
2017-06-16T16:33:22.742Z,4.57
2017-06-16T16:35:50.199Z,2.20
2017-06-16T16:38:17.692Z,7.43
2017-06-16T16:40:49.470Z,7.83
2017-06-16T16:43:16.955Z,2.60
2017-06-16T16:45:44.434Z,6.47
2017-06-16T16:48:11.913Z,1.13
2017-06-16T16:50:39.466Z,3.00
2017-06-16T16:53:06.930Z,3.97
2017-06-16T16:55:35.161Z,4.97
2017-06-16T16:58:02.621Z,2.77
2017-06-16T17:00:30.090Z,1.40
2017-06-16T17:02:57.545Z,4.33
2017-06-16T17:05:25.006Z,4.97
2017-06-16T17:07:52.473Z,6.03
2017-06-16T17:10:20.029Z,5.03
2017-06-16T17:12:47.520Z,3.63
2017-06-16T17:15:15.023Z,2.67
2017-06-16T17:17:42.528Z,3.73
2017-06-16T17:20:10.762Z,3.53
2017-06-16T17:22:38.254Z,4.03
2017-06-16T17:25:06.505Z,6.00
2017-06-16T17:27:34.015Z,7.33
2017-06-16T17:30:01.473Z,4.97
2017-06-16T17:32:28.962Z,3.73
2017-06-16T17:34:56.451Z,3.37
2017-06-16T17:37:24.719Z,5.67
2017-06-16T17:39:52.184Z,6.63
2017-06-16T17:42:20.445Z,4.73
2017-06-16T17:44:48.736Z,5.67
2017-06-16T17:47:17.041Z,2.97
2017-06-16T17:49:44.497Z,4.83
2017-06-16T17:52:12.414Z,1.50
2017-06-16T17:54:39.988Z,1.93
2017-06-16T17:57:08.277Z,9.80
2017-06-16T17:59:36.498Z,2.03
2017-06-16T18:02:04.060Z,9.13
2017-06-16T18:04:31.525Z,6.30
2017-06-16T18:06:58.985Z,8.57
2017-06-16T18:09:26.583Z,4.53
2017-06-16T18:11:54.809Z,6.33
2017-06-16T18:14:22.273Z,7.20
2017-06-16T18:16:49.733Z,2.53
2017-06-16T18:19:17.362Z,4.37
2017-06-16T18:21:44.818Z,8.07
2017-06-16T18:24:12.318Z,7.63
2017-06-16T18:26:40.048Z,7.30
2017-06-16T18:29:07.538Z,8.17
2017-06-16T18:31:35.827Z,7.77
2017-06-16T18:34:03.285Z,8.00
2017-06-16T18:36:31.549Z,4.57
2017-06-16T18:38:59.115Z,7.60
2017-06-16T18:41:26.618Z,10.13
2017-06-16T18:43:54.221Z,7.13
2017-06-16T18:46:21.783Z,6.93
2017-06-16T18:48:49.349Z,4.70
2017-06-16T18:51:16.909Z,5.27
2017-06-16T18:53:44.366Z,2.77
2017-06-16T18:56:11.830Z,6.90
2017-06-16T18:58:40.091Z,3.10
2017-06-16T19:01:07.656Z,6.20
2017-06-16T19:03:35.211Z,4.13
2017-06-16T19:06:02.688Z,6.00
2017-06-16T19:08:31.041Z,14.90
2017-06-16T19:10:58.707Z,3.70
2017-06-16T19:13:26.261Z,5.07
2017-06-16T19:15:53.726Z,7.73
2017-06-16T19:18:21.994Z,9.90
2017-06-16T19:20:49.549Z,6.97
2017-06-16T19:23:17.113Z,4.77
2017-06-16T19:25:44.582Z,4.10
2017-06-16T19:28:12.061Z,7.80
2017-06-16T19:30:39.542Z,10.73
2017-06-16T19:33:07.026Z,4.40
2017-06-16T19:35:34.499Z,4.97
2017-06-16T19:38:02.093Z,5.33
2017-06-16T19:40:29.554Z,4.80
2017-06-16T19:42:57.126Z,4.13
2017-06-16T19:45:24.615Z,7.00
2017-06-16T19:47:52.193Z,9.30
2017-06-16T19:50:20.465Z,9.97
2017-06-16T19:52:48.700Z,14.60
2017-06-16T19:55:16.195Z,9.53
2017-06-16T19:57:43.749Z,7.97
2017-06-16T20:00:11.222Z,4.43
2017-06-16T20:02:39.454Z,7.03
2017-06-16T20:05:06.941Z,13.90
2017-06-16T20:07:34.409Z,10.13
2017-06-16T20:10:02.674Z,7.10
2017-06-16T20:12:30.229Z,6.67
2017-06-16T20:14:57.789Z,8.57
2017-06-16T20:17:25.261Z,10.37
2017-06-16T20:19:53.627Z,10.53
2017-06-16T20:22:21.183Z,7.33
2017-06-16T20:24:48.695Z,8.50
2017-06-16T20:27:16.244Z,5.63
2017-06-16T20:29:43.709Z,4.83
2017-06-16T20:32:11.238Z,7.47
2017-06-16T20:34:39.473Z,7.67
2017-06-16T20:37:07.049Z,7.50
2017-06-16T20:39:34.509Z,8.83
2017-06-16T20:42:02.785Z,8.90
2017-06-16T20:44:31.014Z,15.43
2017-06-16T20:46:58.564Z,3.23
2017-06-16T20:49:26.077Z,8.70
2017-06-16T20:51:54.307Z,7.97
2017-06-16T20:54:21.798Z,14.87
2017-06-16T20:56:49.261Z,9.37
2017-06-16T20:59:17.498Z,8.93
2017-06-16T21:01:44.972Z,7.83
2017-06-16T21:04:12.446Z,13.60
2017-06-16T21:06:40.009Z,12.70
2017-06-16T21:09:07.480Z,5.57
2017-06-16T21:11:35.713Z,7.67
2017-06-16T21:14:03.289Z,9.13
2017-06-16T21:16:30.855Z,8.20
2017-06-16T21:18:58.328Z,7.97
2017-06-16T21:21:26.581Z,15.63
2017-06-16T21:23:54.150Z,15.60
2017-06-16T21:26:22.426Z,4.33
2017-06-16T21:28:49.890Z,6.70
2017-06-16T21:31:18.166Z,8.20
2017-06-16T21:33:46.425Z,5.83
2017-06-16T21:36:14.001Z,10.37
2017-06-16T21:38:42.261Z,6.70
2017-06-16T21:41:09.842Z,8.40
2017-06-16T21:43:37.383Z,15.83
2017-06-16T21:46:05.649Z,5.87
2017-06-16T21:48:33.117Z,10.50
2017-06-16T21:51:01.378Z,6.70
2017-06-16T21:53:28.855Z,15.40
2017-06-16T21:55:57.097Z,4.60
2017-06-16T21:58:24.669Z,7.40
2017-06-16T22:00:52.142Z,4.30
2017-06-16T22:03:20.392Z,13.30
2017-06-16T22:05:47.971Z,13.03
2017-06-16T22:08:16.238Z,12.53
2017-06-16T22:10:44.471Z,18.20
2017-06-16T22:13:12.025Z,8.03
2017-06-16T22:15:39.493Z,9.07
2017-06-16T22:18:07.424Z,8.97
2017-06-16T22:20:34.894Z,12.53
2017-06-16T22:23:02.418Z,6.70
2017-06-16T22:25:30.715Z,17.90
2017-06-16T22:27:58.181Z,11.47
2017-06-16T22:30:25.661Z,7.30
2017-06-16T22:32:53.157Z,12.73
2017-06-16T22:35:20.721Z,11.23
2017-06-16T22:37:48.184Z,14.40
2017-06-16T22:40:16.473Z,8.87
2017-06-16T22:42:44.701Z,9.50
2017-06-16T22:45:12.174Z,12.17
2017-06-16T22:47:39.642Z,7.53
2017-06-16T22:50:07.873Z,5.63
2017-06-16T22:52:35.378Z,14.40
2017-06-16T22:55:02.935Z,3.17
2017-06-16T22:57:31.194Z,21.23
2017-06-16T22:59:58.654Z,8.17
2017-06-16T23:02:26.216Z,8.17
2017-06-16T23:04:53.770Z,8.63
2017-06-16T23:07:21.338Z,16.20
2017-06-16T23:09:48.802Z,12.10
2017-06-16T23:12:17.047Z,8.10
2017-06-16T23:14:44.510Z,10.80
2017-06-16T23:17:12.083Z,11.30
2017-06-16T23:19:39.551Z,9.70
2017-06-16T23:22:07.782Z,8.30
2017-06-16T23:24:35.270Z,8.33
2017-06-16T23:27:02.833Z,8.60
2017-06-16T23:29:30.398Z,15.17
2017-06-16T23:31:58.637Z,8.30
2017-06-16T23:34:26.223Z,12.43
2017-06-16T23:36:53.773Z,7.70
2017-06-16T23:39:21.372Z,7.20
2017-06-16T23:41:48.898Z,17.90
2017-06-16T23:44:16.362Z,5.57
2017-06-16T23:46:44.635Z,15.27
2017-06-16T23:49:12.193Z,14.57
2017-06-16T23:51:40.458Z,9.17
2017-06-16T23:54:07.941Z,12.70
2017-06-16T23:56:35.423Z,6.12
2017-06-16T23:59:02.933Z,10.50
